Sv.knyaz Vladimir — UBKI2 — position and weather

sailwx.info

Track history (hours):
 
Tides and Currents Weather Stations Pressure Air Temp Water Temp Dewpoint Dewpoint Depression Visibility Wind Speed Wind Dir Waves Ship Positions

Sv.knyaz Vladimir

Last reported at 2016-Sep-24 22:29 UTC. Time now 2016-Sep-25 00:20 UTC.
Position N 45°29' E 036°50'.

Length 128 m; draft 4.4 m.

Type: Cargo ship. MMSI: 273350360.

Date/timePositionNaut miles runAvg speedWind from/ knotsBaromVisibWave heightAir tempDewpointWater temp
2016-Sep-24 22:29N 45°29' E 036°50'0 0.0
2016-Sep-24 21:23N 45°29' E 036°50'0 0.0
2016-Sep-24 19:29N 45°29' E 036°50'0 0.0
2016-Sep-24 18:14N 45°29' E 036°50'0 0.0
2016-Sep-24 17:17N 45°29' E 036°50'0 0.0
2016-Sep-24 16:26N 45°29' E 036°50'0 0.0
2016-Sep-24 14:32N 45°29' E 036°50'0 0.0
2016-Sep-24 12:29N 45°29' E 036°50'0 0.0
2016-Sep-24 10:32N 45°29' E 036°50'0 0.0
2016-Sep-24 09:32N 45°29' E 036°50'0 0.0
2016-Sep-24 03:32N 45°29' E 036°50'0 0.1
2016-Sep-24 02:32N 45°29' E 036°50'0 0.0
2016-Sep-24 01:32N 45°29' E 036°50'1 1.0
2016-Sep-24 00:29N 45°28' E 036°51'1 0.1
2016-Sep-22 20:33N 45°28' E 036°49'23 2.8
2016-Sep-22 12:30N 45°08' E 036°34'0 0.0
2016-Sep-21 22:22N 45°08' E 036°34'5 0.1
2016-Sep-19 19:33N 45°09' E 036°28'7 7.2
2016-Sep-19 18:33N 45°16' E 036°28'13 6.4
2016-Sep-19 16:33N 45°25' E 036°41'  
Track history (hours):
 
Tides and Currents Weather Stations Pressure Air Temp Water Temp Dewpoint Dewpoint Depression Visibility Wind Speed Wind Dir Waves Ship Positions

Sv.knyaz Vladimir

Last reported at 2016-Sep-24 22:29 UTC. Time now 2016-Sep-25 00:20 UTC.
Position N 45°29' E 036°50'.

Length 128 m; draft 4.4 m.

Type: Cargo ship. MMSI: 273350360.

Date/timePositionNaut miles runAvg speedWind from/ knotsBaromVisibWave heightAir tempDewpointWater temp
2016-Sep-24 22:29N 45°29' E 036°50'0 0.0
2016-Sep-24 21:23N 45°29' E 036°50'0 0.0
2016-Sep-24 19:29N 45°29' E 036°50'0 0.0
2016-Sep-24 18:14N 45°29' E 036°50'0 0.0
2016-Sep-24 17:17N 45°29' E 036°50'0 0.0
2016-Sep-24 16:26N 45°29' E 036°50'0 0.0
2016-Sep-24 14:32N 45°29' E 036°50'0 0.0
2016-Sep-24 12:29N 45°29' E 036°50'0 0.0
2016-Sep-24 10:32N 45°29' E 036°50'0 0.0
2016-Sep-24 09:32N 45°29' E 036°50'0 0.0
2016-Sep-24 03:32N 45°29' E 036°50'0 0.1
2016-Sep-24 02:32N 45°29' E 036°50'0 0.0
2016-Sep-24 01:32N 45°29' E 036°50'1 1.0
2016-Sep-24 00:29N 45°28' E 036°51'1 0.1
2016-Sep-22 20:33N 45°28' E 036°49'23 2.8
2016-Sep-22 12:30N 45°08' E 036°34'0 0.0
2016-Sep-21 22:22N 45°08' E 036°34'5 0.1
2016-Sep-19 19:33N 45°09' E 036°28'7 7.2
2016-Sep-19 18:33N 45°16' E 036°28'13 6.4
2016-Sep-19 16:33N 45°25' E 036°41'  

Dump ship's entire track history